sensor_id;sensor_type;location;lat;lon;timestamp;P1;durP1;ratioP1;P2;durP2;ratioP2
3447;SDS011;1738;49.500;17.736;2024-01-06T00:00:08;37.27;;;18.07;;
3447;SDS011;1738;49.500;17.736;2024-01-06T00:02:34;35.90;;;20.27;;
3447;SDS011;1738;49.500;17.736;2024-01-06T00:04:59;28.70;;;18.33;;
3447;SDS011;1738;49.500;17.736;2024-01-06T00:07:25;27.95;;;19.60;;
3447;SDS011;1738;49.500;17.736;2024-01-06T00:09:51;29.53;;;18.23;;
3447;SDS011;1738;49.500;17.736;2024-01-06T00:12:17;30.60;;;18.43;;
3447;SDS011;1738;49.500;17.736;2024-01-06T00:14:43;32.97;;;18.00;;
3447;SDS011;1738;49.500;17.736;2024-01-06T00:17:09;27.50;;;17.33;;
3447;SDS011;1738;49.500;17.736;2024-01-06T00:19:34;31.07;;;17.03;;
3447;SDS011;1738;49.500;17.736;2024-01-06T00:22:00;28.37;;;17.57;;
3447;SDS011;1738;49.500;17.736;2024-01-06T00:24:26;30.20;;;18.02;;
3447;SDS011;1738;49.500;17.736;2024-01-06T00:26:52;33.50;;;18.50;;
3447;SDS011;1738;49.500;17.736;2024-01-06T00:29:18;25.70;;;15.80;;
3447;SDS011;1738;49.500;17.736;2024-01-06T00:31:44;22.67;;;14.03;;
3447;SDS011;1738;49.500;17.736;2024-01-06T00:34:09;28.13;;;16.00;;
3447;SDS011;1738;49.500;17.736;2024-01-06T00:36:35;29.33;;;14.47;;
3447;SDS011;1738;49.500;17.736;2024-01-06T00:39:01;28.13;;;15.43;;
3447;SDS011;1738;49.500;17.736;2024-01-06T00:41:27;24.03;;;14.20;;
3447;SDS011;1738;49.500;17.736;2024-01-06T00:43:53;26.23;;;15.03;;
3447;SDS011;1738;49.500;17.736;2024-01-06T00:46:19;23.47;;;15.60;;
3447;SDS011;1738;49.500;17.736;2024-01-06T00:48:45;23.40;;;14.50;;
3447;SDS011;1738;49.500;17.736;2024-01-06T00:51:10;27.30;;;15.70;;
3447;SDS011;1738;49.500;17.736;2024-01-06T00:53:36;20.45;;;13.75;;
3447;SDS011;1738;49.500;17.736;2024-01-06T00:56:02;27.70;;;15.67;;
3447;SDS011;1738;49.500;17.736;2024-01-06T00:58:28;24.73;;;14.83;;
3447;SDS011;1738;49.500;17.736;2024-01-06T01:00:54;24.63;;;15.07;;
3447;SDS011;1738;49.500;17.736;2024-01-06T01:03:20;28.53;;;14.97;;
3447;SDS011;1738;49.500;17.736;2024-01-06T01:05:46;23.97;;;14.70;;
3447;SDS011;1738;49.500;17.736;2024-01-06T01:08:12;26.20;;;13.77;;
3447;SDS011;1738;49.500;17.736;2024-01-06T01:10:37;23.90;;;14.60;;
3447;SDS011;1738;49.500;17.736;2024-01-06T01:13:03;22.63;;;13.83;;
3447;SDS011;1738;49.500;17.736;2024-01-06T01:15:29;24.90;;;14.53;;
3447;SDS011;1738;49.500;17.736;2024-01-06T01:17:55;26.20;;;15.70;;
3447;SDS011;1738;49.500;17.736;2024-01-06T01:20:21;25.63;;;15.17;;
3447;SDS011;1738;49.500;17.736;2024-01-06T01:22:47;26.00;;;14.07;;
3447;SDS011;1738;49.500;17.736;2024-01-06T01:25:13;23.00;;;13.30;;
3447;SDS011;1738;49.500;17.736;2024-01-06T01:27:39;23.05;;;13.65;;
3447;SDS011;1738;49.500;17.736;2024-01-06T01:30:05;27.97;;;15.40;;
3447;SDS011;1738;49.500;17.736;2024-01-06T01:32:31;27.77;;;15.50;;
3447;SDS011;1738;49.500;17.736;2024-01-06T01:34:57;27.00;;;16.67;;
3447;SDS011;1738;49.500;17.736;2024-01-06T01:37:22;28.40;;;14.90;;
3447;SDS011;1738;49.500;17.736;2024-01-06T01:39:48;21.60;;;13.77;;
3447;SDS011;1738;49.500;17.736;2024-01-06T01:42:14;25.20;;;15.60;;
3447;SDS011;1738;49.500;17.736;2024-01-06T01:44:40;20.80;;;13.23;;
3447;SDS011;1738;49.500;17.736;2024-01-06T01:47:06;33.23;;;14.77;;
3447;SDS011;1738;49.500;17.736;2024-01-06T01:49:32;27.63;;;15.33;;
3447;SDS011;1738;49.500;17.736;2024-01-06T01:51:58;26.53;;;14.17;;
3447;SDS011;1738;49.500;17.736;2024-01-06T01:54:23;22.90;;;13.53;;
3447;SDS011;1738;49.500;17.736;2024-01-06T01:56:49;21.10;;;13.40;;
3447;SDS011;1738;49.500;17.736;2024-01-06T01:59:16;21.97;;;13.50;;
3447;SDS011;1738;49.500;17.736;2024-01-06T02:01:41;23.23;;;14.13;;
3447;SDS011;1738;49.500;17.736;2024-01-06T02:04:08;20.55;;;12.80;;
3447;SDS011;1738;49.500;17.736;2024-01-06T02:06:33;20.27;;;13.80;;
3447;SDS011;1738;49.500;17.736;2024-01-06T02:08:58;21.83;;;13.10;;
3447;SDS011;1738;49.500;17.736;2024-01-06T02:11:24;21.47;;;13.57;;
3447;SDS011;1738;49.500;17.736;2024-01-06T02:13:50;20.83;;;13.73;;
3447;SDS011;1738;49.500;17.736;2024-01-06T02:16:16;23.37;;;11.83;;
3447;SDS011;1738;49.500;17.736;2024-01-06T02:18:42;21.47;;;13.67;;
3447;SDS011;1738;49.500;17.736;2024-01-06T02:21:08;21.13;;;12.70;;
3447;SDS011;1738;49.500;17.736;2024-01-06T02:23:34;24.70;;;14.40;;
3447;SDS011;1738;49.500;17.736;2024-01-06T02:25:59;25.87;;;13.93;;
3447;SDS011;1738;49.500;17.736;2024-01-06T02:28:25;21.40;;;14.20;;
3447;SDS011;1738;49.500;17.736;2024-01-06T02:30:51;20.88;;;13.32;;
3447;SDS011;1738;49.500;17.736;2024-01-06T02:33:17;20.13;;;13.60;;
3447;SDS011;1738;49.500;17.736;2024-01-06T02:35:43;25.47;;;15.47;;
3447;SDS011;1738;49.500;17.736;2024-01-06T02:38:09;21.83;;;15.07;;
3447;SDS011;1738;49.500;17.736;2024-01-06T02:40:34;20.80;;;15.57;;
3447;SDS011;1738;49.500;17.736;2024-01-06T02:43:00;27.75;;;16.27;;
3447;SDS011;1738;49.500;17.736;2024-01-06T02:45:26;28.13;;;16.23;;
3447;SDS011;1738;49.500;17.736;2024-01-06T02:47:52;31.23;;;16.83;;
3447;SDS011;1738;49.500;17.736;2024-01-06T02:50:18;22.57;;;14.87;;
3447;SDS011;1738;49.500;17.736;2024-01-06T02:52:44;22.30;;;14.30;;
3447;SDS011;1738;49.500;17.736;2024-01-06T02:55:09;23.47;;;12.97;;
3447;SDS011;1738;49.500;17.736;2024-01-06T02:57:35;22.13;;;12.77;;
3447;SDS011;1738;49.500;17.736;2024-01-06T03:00:01;20.05;;;12.37;;
3447;SDS011;1738;49.500;17.736;2024-01-06T03:02:27;21.80;;;12.27;;
3447;SDS011;1738;49.500;17.736;2024-01-06T03:04:53;26.20;;;14.80;;
3447;SDS011;1738;49.500;17.736;2024-01-06T03:07:19;28.27;;;16.20;;
3447;SDS011;1738;49.500;17.736;2024-01-06T03:09:44;27.40;;;14.90;;
3447;SDS011;1738;49.500;17.736;2024-01-06T03:12:10;27.57;;;15.40;;
3447;SDS011;1738;49.500;17.736;2024-01-06T03:14:36;27.60;;;14.00;;
3447;SDS011;1738;49.500;17.736;2024-01-06T03:17:02;28.65;;;16.58;;
3447;SDS011;1738;49.500;17.736;2024-01-06T03:19:28;35.23;;;16.93;;
3447;SDS011;1738;49.500;17.736;2024-01-06T03:21:54;28.97;;;19.00;;
3447;SDS011;1738;49.500;17.736;2024-01-06T03:24:21;27.13;;;16.70;;
3447;SDS011;1738;49.500;17.736;2024-01-06T03:26:46;30.40;;;16.87;;
3447;SDS011;1738;49.500;17.736;2024-01-06T03:29:12;34.70;;;17.00;;
3447;SDS011;1738;49.500;17.736;2024-01-06T03:31:41;28.20;;;17.57;;
3447;SDS011;1738;49.500;17.736;2024-01-06T03:34:04;30.40;;;17.40;;
3447;SDS011;1738;49.500;17.736;2024-01-06T03:36:30;29.43;;;17.07;;
3447;SDS011;1738;49.500;17.736;2024-01-06T03:38:55;27.27;;;17.30;;
3447;SDS011;1738;49.500;17.736;2024-01-06T03:41:21;24.17;;;15.60;;
3447;SDS011;1738;49.500;17.736;2024-01-06T03:43:47;35.33;;;19.50;;
3447;SDS011;1738;49.500;17.736;2024-01-06T03:46:13;34.60;;;19.63;;
3447;SDS011;1738;49.500;17.736;2024-01-06T03:48:39;26.90;;;16.30;;
3447;SDS011;1738;49.500;17.736;2024-01-06T03:51:06;35.40;;;19.50;;
3447;SDS011;1738;49.500;17.736;2024-01-06T03:53:31;31.93;;;16.87;;
3447;SDS011;1738;49.500;17.736;2024-01-06T03:55:56;32.67;;;17.47;;
3447;SDS011;1738;49.500;17.736;2024-01-06T03:58:22;31.77;;;18.40;;
3447;SDS011;1738;49.500;17.736;2024-01-06T04:00:48;29.30;;;18.30;;
3447;SDS011;1738;49.500;17.736;2024-01-06T04:03:14;35.67;;;20.00;;
3447;SDS011;1738;49.500;17.736;2024-01-06T04:05:40;35.65;;;18.77;;
3447;SDS011;1738;49.500;17.736;2024-01-06T04:08:06;35.97;;;20.17;;
3447;SDS011;1738;49.500;17.736;2024-01-06T04:10:31;35.77;;;22.10;;
3447;SDS011;1738;49.500;17.736;2024-01-06T04:12:57;39.13;;;22.93;;
3447;SDS011;1738;49.500;17.736;2024-01-06T04:15:23;34.83;;;20.65;;
3447;SDS011;1738;49.500;17.736;2024-01-06T04:17:49;39.50;;;21.27;;
3447;SDS011;1738;49.500;17.736;2024-01-06T04:20:15;36.17;;;22.60;;
3447;SDS011;1738;49.500;17.736;2024-01-06T04:22:41;44.43;;;24.70;;
3447;SDS011;1738;49.500;17.736;2024-01-06T04:25:07;49.23;;;23.60;;
3447;SDS011;1738;49.500;17.736;2024-01-06T04:27:33;44.40;;;22.83;;
3447;SDS011;1738;49.500;17.736;2024-01-06T04:29:59;40.40;;;22.80;;
3447;SDS011;1738;49.500;17.736;2024-01-06T04:32:24;41.30;;;24.67;;
3447;SDS011;1738;49.500;17.736;2024-01-06T04:34:50;43.57;;;24.87;;
3447;SDS011;1738;49.500;17.736;2024-01-06T04:37:16;40.27;;;23.37;;
3447;SDS011;1738;49.500;17.736;2024-01-06T04:39:42;44.60;;;23.67;;
3447;SDS011;1738;49.500;17.736;2024-01-06T04:42:08;47.73;;;23.97;;
3447;SDS011;1738;49.500;17.736;2024-01-06T04:44:34;43.77;;;23.20;;
3447;SDS011;1738;49.500;17.736;2024-01-06T04:46:59;46.83;;;27.67;;
3447;SDS011;1738;49.500;17.736;2024-01-06T04:49:25;44.30;;;25.87;;
3447;SDS011;1738;49.500;17.736;2024-01-06T04:51:51;43.13;;;27.43;;
3447;SDS011;1738;49.500;17.736;2024-01-06T04:54:17;48.50;;;25.13;;
3447;SDS011;1738;49.500;17.736;2024-01-06T04:56:43;47.00;;;24.67;;
3447;SDS011;1738;49.500;17.736;2024-01-06T04:59:09;53.33;;;27.10;;
3447;SDS011;1738;49.500;17.736;2024-01-06T05:01:35;53.70;;;25.50;;
3447;SDS011;1738;49.500;17.736;2024-01-06T05:04:00;50.87;;;27.37;;
3447;SDS011;1738;49.500;17.736;2024-01-06T05:06:26;48.80;;;26.67;;
3447;SDS011;1738;49.500;17.736;2024-01-06T05:08:52;45.10;;;26.33;;
3447;SDS011;1738;49.500;17.736;2024-01-06T05:11:18;56.80;;;31.37;;
3447;SDS011;1738;49.500;17.736;2024-01-06T05:13:44;53.07;;;28.90;;
3447;SDS011;1738;49.500;17.736;2024-01-06T05:16:10;57.83;;;30.03;;
3447;SDS011;1738;49.500;17.736;2024-01-06T05:18:35;55.27;;;27.90;;
3447;SDS011;1738;49.500;17.736;2024-01-06T05:21:01;57.23;;;28.13;;
3447;SDS011;1738;49.500;17.736;2024-01-06T05:23:27;59.07;;;30.37;;
3447;SDS011;1738;49.500;17.736;2024-01-06T05:25:53;47.60;;;28.90;;
3447;SDS011;1738;49.500;17.736;2024-01-06T05:28:19;52.00;;;26.97;;
3447;SDS011;1738;49.500;17.736;2024-01-06T05:30:45;55.43;;;28.00;;
3447;SDS011;1738;49.500;17.736;2024-01-06T05:33:11;71.07;;;30.00;;
3447;SDS011;1738;49.500;17.736;2024-01-06T05:35:36;52.67;;;29.13;;
3447;SDS011;1738;49.500;17.736;2024-01-06T05:38:02;51.80;;;27.60;;
3447;SDS011;1738;49.500;17.736;2024-01-06T05:40:28;56.75;;;30.70;;
3447;SDS011;1738;49.500;17.736;2024-01-06T05:42:54;47.97;;;28.33;;
3447;SDS011;1738;49.500;17.736;2024-01-06T05:45:20;53.90;;;28.10;;
3447;SDS011;1738;49.500;17.736;2024-01-06T05:47:46;62.87;;;30.70;;
3447;SDS011;1738;49.500;17.736;2024-01-06T05:50:11;60.97;;;31.93;;
3447;SDS011;1738;49.500;17.736;2024-01-06T05:52:37;63.53;;;32.43;;
3447;SDS011;1738;49.500;17.736;2024-01-06T05:55:04;64.60;;;32.87;;
3447;SDS011;1738;49.500;17.736;2024-01-06T05:57:30;54.53;;;32.27;;
3447;SDS011;1738;49.500;17.736;2024-01-06T05:59:55;63.57;;;33.50;;
3447;SDS011;1738;49.500;17.736;2024-01-06T06:02:21;73.90;;;32.53;;
3447;SDS011;1738;49.500;17.736;2024-01-06T06:04:47;61.00;;;31.93;;
3447;SDS011;1738;49.500;17.736;2024-01-06T06:07:13;51.73;;;28.63;;
3447;SDS011;1738;49.500;17.736;2024-01-06T06:09:39;57.13;;;33.20;;
3447;SDS011;1738;49.500;17.736;2024-01-06T06:12:05;65.40;;;35.07;;
3447;SDS011;1738;49.500;17.736;2024-01-06T06:14:31;59.10;;;32.60;;
3447;SDS011;1738;49.500;17.736;2024-01-06T06:16:56;56.80;;;29.97;;
3447;SDS011;1738;49.500;17.736;2024-01-06T06:19:22;52.10;;;30.33;;
3447;SDS011;1738;49.500;17.736;2024-01-06T06:21:48;72.57;;;34.17;;
3447;SDS011;1738;49.500;17.736;2024-01-06T06:24:14;59.60;;;29.10;;
3447;SDS011;1738;49.500;17.736;2024-01-06T06:26:40;60.23;;;33.17;;
3447;SDS011;1738;49.500;17.736;2024-01-06T06:29:06;58.17;;;31.87;;
3447;SDS011;1738;49.500;17.736;2024-01-06T06:31:31;58.00;;;29.87;;
3447;SDS011;1738;49.500;17.736;2024-01-06T06:33:57;52.57;;;29.40;;
3447;SDS011;1738;49.500;17.736;2024-01-06T06:36:23;56.90;;;31.93;;
3447;SDS011;1738;49.500;17.736;2024-01-06T06:38:49;58.27;;;27.67;;
3447;SDS011;1738;49.500;17.736;2024-01-06T06:41:15;55.57;;;32.47;;
3447;SDS011;1738;49.500;17.736;2024-01-06T06:43:41;51.73;;;27.40;;
3447;SDS011;1738;49.500;17.736;2024-01-06T06:46:07;53.37;;;27.60;;
3447;SDS011;1738;49.500;17.736;2024-01-06T06:48:33;52.57;;;29.57;;
3447;SDS011;1738;49.500;17.736;2024-01-06T06:50:58;57.67;;;29.73;;
3447;SDS011;1738;49.500;17.736;2024-01-06T06:53:24;56.40;;;32.53;;
3447;SDS011;1738;49.500;17.736;2024-01-06T06:55:50;71.97;;;35.87;;
3447;SDS011;1738;49.500;17.736;2024-01-06T06:58:16;62.30;;;35.33;;
3447;SDS011;1738;49.500;17.736;2024-01-06T07:00:42;57.07;;;31.73;;
3447;SDS011;1738;49.500;17.736;2024-01-06T07:03:07;52.40;;;29.80;;
3447;SDS011;1738;49.500;17.736;2024-01-06T07:05:33;48.93;;;27.57;;
3447;SDS011;1738;49.500;17.736;2024-01-06T07:08:00;57.90;;;31.93;;
3447;SDS011;1738;49.500;17.736;2024-01-06T07:10:26;59.20;;;29.73;;
3447;SDS011;1738;49.500;17.736;2024-01-06T07:12:52;62.67;;;30.57;;
3447;SDS011;1738;49.500;17.736;2024-01-06T07:15:18;56.35;;;30.52;;
3447;SDS011;1738;49.500;17.736;2024-01-06T07:17:43;58.50;;;28.70;;
3447;SDS011;1738;49.500;17.736;2024-01-06T07:20:10;69.50;;;38.17;;
3447;SDS011;1738;49.500;17.736;2024-01-06T07:22:36;55.43;;;31.17;;
3447;SDS011;1738;49.500;17.736;2024-01-06T07:25:01;51.40;;;30.87;;
3447;SDS011;1738;49.500;17.736;2024-01-06T07:27:27;46.93;;;29.33;;
3447;SDS011;1738;49.500;17.736;2024-01-06T07:29:53;64.10;;;32.53;;
3447;SDS011;1738;49.500;17.736;2024-01-06T07:32:19;53.47;;;32.07;;
3447;SDS011;1738;49.500;17.736;2024-01-06T07:34:45;60.70;;;30.40;;
3447;SDS011;1738;49.500;17.736;2024-01-06T07:37:10;57.47;;;30.17;;
3447;SDS011;1738;49.500;17.736;2024-01-06T07:39:38;62.97;;;35.00;;
3447;SDS011;1738;49.500;17.736;2024-01-06T07:42:04;72.65;;;37.88;;
3447;SDS011;1738;49.500;17.736;2024-01-06T07:44:29;68.30;;;39.10;;
3447;SDS011;1738;49.500;17.736;2024-01-06T07:46:55;71.53;;;38.33;;
3447;SDS011;1738;49.500;17.736;2024-01-06T07:49:21;70.53;;;37.53;;
3447;SDS011;1738;49.500;17.736;2024-01-06T07:51:47;78.43;;;45.87;;
3447;SDS011;1738;49.500;17.736;2024-01-06T07:54:13;125.77;;;59.40;;
3447;SDS011;1738;49.500;17.736;2024-01-06T07:56:39;110.77;;;62.43;;
3447;SDS011;1738;49.500;17.736;2024-01-06T07:59:04;106.18;;;57.78;;
3447;SDS011;1738;49.500;17.736;2024-01-06T08:01:30;103.93;;;60.40;;
3447;SDS011;1738;49.500;17.736;2024-01-06T08:03:57;79.83;;;45.13;;
3447;SDS011;1738;49.500;17.736;2024-01-06T08:06:22;113.80;;;69.57;;
3447;SDS011;1738;49.500;17.736;2024-01-06T08:08:48;64.90;;;40.90;;
3447;SDS011;1738;49.500;17.736;2024-01-06T08:11:14;82.60;;;50.30;;
3447;SDS011;1738;49.500;17.736;2024-01-06T08:13:39;72.23;;;37.67;;
3447;SDS011;1738;49.500;17.736;2024-01-06T08:16:06;69.53;;;47.67;;
3447;SDS011;1738;49.500;17.736;2024-01-06T08:18:31;71.20;;;43.30;;
3447;SDS011;1738;49.500;17.736;2024-01-06T08:20:57;90.73;;;57.10;;
3447;SDS011;1738;49.500;17.736;2024-01-06T08:23:23;105.50;;;63.83;;
3447;SDS011;1738;49.500;17.736;2024-01-06T08:25:49;92.07;;;56.65;;
3447;SDS011;1738;49.500;17.736;2024-01-06T08:28:15;105.67;;;59.40;;
3447;SDS011;1738;49.500;17.736;2024-01-06T08:30:41;223.30;;;130.87;;
3447;SDS011;1738;49.500;17.736;2024-01-06T08:33:07;107.27;;;66.17;;
3447;SDS011;1738;49.500;17.736;2024-01-06T08:35:33;120.93;;;71.73;;
3447;SDS011;1738;49.500;17.736;2024-01-06T08:37:59;77.20;;;46.30;;
3447;SDS011;1738;49.500;17.736;2024-01-06T08:40:25;71.70;;;50.40;;
3447;SDS011;1738;49.500;17.736;2024-01-06T08:42:51;66.20;;;39.63;;
3447;SDS011;1738;49.500;17.736;2024-01-06T08:45:17;61.13;;;37.07;;
3447;SDS011;1738;49.500;17.736;2024-01-06T08:47:42;81.57;;;48.77;;
3447;SDS011;1738;49.500;17.736;2024-01-06T08:50:08;91.43;;;54.20;;
3447;SDS011;1738;49.500;17.736;2024-01-06T08:52:34;80.73;;;54.07;;
3447;SDS011;1738;49.500;17.736;2024-01-06T08:55:00;143.07;;;84.20;;
3447;SDS011;1738;49.500;17.736;2024-01-06T08:57:26;99.40;;;53.70;;
3447;SDS011;1738;49.500;17.736;2024-01-06T08:59:52;120.00;;;58.27;;
3447;SDS011;1738;49.500;17.736;2024-01-06T09:02:18;119.60;;;68.37;;
3447;SDS011;1738;49.500;17.736;2024-01-06T09:04:43;124.60;;;65.53;;
3447;SDS011;1738;49.500;17.736;2024-01-06T09:07:09;148.17;;;71.73;;
3447;SDS011;1738;49.500;17.736;2024-01-06T09:09:35;236.37;;;103.03;;
3447;SDS011;1738;49.500;17.736;2024-01-06T09:12:01;186.13;;;89.43;;
3447;SDS011;1738;49.500;17.736;2024-01-06T09:14:27;168.47;;;76.07;;
3447;SDS011;1738;49.500;17.736;2024-01-06T09:16:53;127.63;;;59.10;;
3447;SDS011;1738;49.500;17.736;2024-01-06T09:19:19;145.10;;;70.20;;
3447;SDS011;1738;49.500;17.736;2024-01-06T09:21:44;115.40;;;51.03;;
3447;SDS011;1738;49.500;17.736;2024-01-06T09:24:10;204.03;;;82.50;;
3447;SDS011;1738;49.500;17.736;2024-01-06T09:26:36;154.97;;;60.67;;
3447;SDS011;1738;49.500;17.736;2024-01-06T09:29:02;147.77;;;75.53;;
3447;SDS011;1738;49.500;17.736;2024-01-06T09:31:28;122.93;;;59.33;;
3447;SDS011;1738;49.500;17.736;2024-01-06T09:33:54;167.37;;;78.30;;
3447;SDS011;1738;49.500;17.736;2024-01-06T09:36:20;140.60;;;69.63;;
3447;SDS011;1738;49.500;17.736;2024-01-06T09:38:45;117.17;;;55.20;;
3447;SDS011;1738;49.500;17.736;2024-01-06T09:41:11;89.53;;;51.70;;
3447;SDS011;1738;49.500;17.736;2024-01-06T09:43:37;78.68;;;43.05;;
3447;SDS011;1738;49.500;17.736;2024-01-06T09:46:06;81.47;;;46.67;;
3447;SDS011;1738;49.500;17.736;2024-01-06T09:48:31;129.63;;;70.40;;
3447;SDS011;1738;49.500;17.736;2024-01-06T09:50:57;104.43;;;49.17;;
3447;SDS011;1738;49.500;17.736;2024-01-06T09:53:23;73.47;;;42.20;;
3447;SDS011;1738;49.500;17.736;2024-01-06T09:55:48;60.87;;;34.43;;
3447;SDS011;1738;49.500;17.736;2024-01-06T09:58:14;77.97;;;39.60;;
3447;SDS011;1738;49.500;17.736;2024-01-06T10:00:40;71.80;;;40.27;;
3447;SDS011;1738;49.500;17.736;2024-01-06T10:03:06;90.50;;;50.43;;
3447;SDS011;1738;49.500;17.736;2024-01-06T10:05:32;97.18;;;51.58;;
3447;SDS011;1738;49.500;17.736;2024-01-06T10:07:58;508.45;;;280.87;;
3447;SDS011;1738;49.500;17.736;2024-01-06T10:10:24;275.03;;;142.97;;
3447;SDS011;1738;49.500;17.736;2024-01-06T10:12:52;304.57;;;177.10;;
3447;SDS011;1738;49.500;17.736;2024-01-06T10:15:16;341.97;;;217.70;;
3447;SDS011;1738;49.500;17.736;2024-01-06T10:17:42;128.07;;;79.63;;
3447;SDS011;1738;49.500;17.736;2024-01-06T10:20:08;143.93;;;93.37;;
3447;SDS011;1738;49.500;17.736;2024-01-06T10:22:35;97.83;;;60.30;;
3447;SDS011;1738;49.500;17.736;2024-01-06T10:25:00;118.57;;;59.93;;
3447;SDS011;1738;49.500;17.736;2024-01-06T10:27:25;69.97;;;41.47;;
3447;SDS011;1738;49.500;17.736;2024-01-06T10:29:51;48.87;;;31.27;;
3447;SDS011;1738;49.500;17.736;2024-01-06T10:32:17;48.60;;;30.50;;
3447;SDS011;1738;49.500;17.736;2024-01-06T10:34:43;39.80;;;26.55;;
3447;SDS011;1738;49.500;17.736;2024-01-06T10:37:09;40.37;;;26.10;;
3447;SDS011;1738;49.500;17.736;2024-01-06T10:39:35;38.93;;;19.73;;
3447;SDS011;1738;49.500;17.736;2024-01-06T10:42:01;36.83;;;20.50;;
3447;SDS011;1738;49.500;17.736;2024-01-06T10:44:26;28.00;;;16.20;;
3447;SDS011;1738;49.500;17.736;2024-01-06T10:46:52;29.30;;;20.57;;
3447;SDS011;1738;49.500;17.736;2024-01-06T10:49:18;27.27;;;15.53;;
3447;SDS011;1738;49.500;17.736;2024-01-06T10:51:44;25.70;;;14.23;;
3447;SDS011;1738;49.500;17.736;2024-01-06T10:54:10;32.77;;;17.27;;
3447;SDS011;1738;49.500;17.736;2024-01-06T10:56:36;22.07;;;14.40;;
3447;SDS011;1738;49.500;17.736;2024-01-06T10:59:01;23.43;;;14.07;;
3447;SDS011;1738;49.500;17.736;2024-01-06T11:01:27;27.73;;;15.70;;
3447;SDS011;1738;49.500;17.736;2024-01-06T11:03:53;36.07;;;21.90;;
3447;SDS011;1738;49.500;17.736;2024-01-06T11:06:19;51.23;;;28.03;;
3447;SDS011;1738;49.500;17.736;2024-01-06T11:08:52;24.00;;;16.30;;
3447;SDS011;1738;49.500;17.736;2024-01-06T11:11:17;22.40;;;15.07;;
3447;SDS011;1738;49.500;17.736;2024-01-06T11:13:42;26.13;;;13.37;;
3447;SDS011;1738;49.500;17.736;2024-01-06T11:16:08;27.43;;;15.30;;
3447;SDS011;1738;49.500;17.736;2024-01-06T11:18:38;37.23;;;21.33;;
3447;SDS011;1738;49.500;17.736;2024-01-06T11:23:34;33.57;;;16.50;;
3447;SDS011;1738;49.500;17.736;2024-01-06T11:26:00;29.70;;;15.13;;
3447;SDS011;1738;49.500;17.736;2024-01-06T11:28:26;31.60;;;14.03;;
3447;SDS011;1738;49.500;17.736;2024-01-06T11:31:04;27.30;;;12.70;;
3447;SDS011;1738;49.500;17.736;2024-01-06T11:33:18;26.23;;;16.27;;
3447;SDS011;1738;49.500;17.736;2024-01-06T11:35:43;30.02;;;18.77;;
3447;SDS011;1738;49.500;17.736;2024-01-06T11:38:09;29.77;;;17.90;;
3447;SDS011;1738;49.500;17.736;2024-01-06T11:40:36;24.43;;;11.57;;
3447;SDS011;1738;49.500;17.736;2024-01-06T11:43:02;28.93;;;15.23;;
3447;SDS011;1738;49.500;17.736;2024-01-06T11:45:27;28.50;;;16.13;;
3447;SDS011;1738;49.500;17.736;2024-01-06T11:47:57;22.20;;;13.90;;
3447;SDS011;1738;49.500;17.736;2024-01-06T11:50:22;30.97;;;14.27;;
3447;SDS011;1738;49.500;17.736;2024-01-06T11:52:48;27.40;;;16.87;;
3447;SDS011;1738;49.500;17.736;2024-01-06T11:55:14;22.37;;;14.40;;
3447;SDS011;1738;49.500;17.736;2024-01-06T11:57:39;34.80;;;18.13;;
3447;SDS011;1738;49.500;17.736;2024-01-06T12:00:06;20.53;;;13.30;;
3447;SDS011;1738;49.500;17.736;2024-01-06T12:02:31;26.40;;;15.53;;
3447;SDS011;1738;49.500;17.736;2024-01-06T12:04:57;36.60;;;17.53;;
3447;SDS011;1738;49.500;17.736;2024-01-06T12:07:23;24.30;;;13.15;;
3447;SDS011;1738;49.500;17.736;2024-01-06T12:09:50;30.93;;;15.80;;
3447;SDS011;1738;49.500;17.736;2024-01-06T12:12:16;28.67;;;13.70;;
3447;SDS011;1738;49.500;17.736;2024-01-06T12:14:41;23.37;;;14.10;;
3447;SDS011;1738;49.500;17.736;2024-01-06T12:17:07;21.63;;;12.63;;
3447;SDS011;1738;49.500;17.736;2024-01-06T12:19:33;35.00;;;20.97;;
3447;SDS011;1738;49.500;17.736;2024-01-06T12:21:58;32.73;;;18.37;;
3447;SDS011;1738;49.500;17.736;2024-01-06T12:24:26;29.92;;;20.77;;
3447;SDS011;1738;49.500;17.736;2024-01-06T12:26:50;39.70;;;23.73;;
3447;SDS011;1738;49.500;17.736;2024-01-06T12:29:16;27.10;;;18.60;;
3447;SDS011;1738;49.500;17.736;2024-01-06T12:31:42;26.60;;;16.53;;
3447;SDS011;1738;49.500;17.736;2024-01-06T12:34:08;21.92;;;13.80;;
3447;SDS011;1738;49.500;17.736;2024-01-06T12:36:34;32.70;;;19.93;;
3447;SDS011;1738;49.500;17.736;2024-01-06T12:38:59;38.30;;;19.20;;
3447;SDS011;1738;49.500;17.736;2024-01-06T12:41:25;39.63;;;21.63;;
3447;SDS011;1738;49.500;17.736;2024-01-06T12:43:51;27.90;;;14.87;;
3447;SDS011;1738;49.500;17.736;2024-01-06T12:49:10;38.90;;;23.87;;
3447;SDS011;1738;49.500;17.736;2024-01-06T12:51:36;48.10;;;23.13;;
3447;SDS011;1738;49.500;17.736;2024-01-06T12:54:02;44.03;;;24.53;;
3447;SDS011;1738;49.500;17.736;2024-01-06T12:56:27;43.17;;;25.17;;
3447;SDS011;1738;49.500;17.736;2024-01-06T12:58:53;59.57;;;35.37;;
3447;SDS011;1738;49.500;17.736;2024-01-06T13:01:19;49.88;;;30.48;;
3447;SDS011;1738;49.500;17.736;2024-01-06T13:03:45;52.77;;;31.37;;
3447;SDS011;1738;49.500;17.736;2024-01-06T13:06:11;95.83;;;52.53;;
3447;SDS011;1738;49.500;17.736;2024-01-06T13:08:37;64.33;;;39.50;;
3447;SDS011;1738;49.500;17.736;2024-01-06T13:11:03;75.23;;;42.13;;
3447;SDS011;1738;49.500;17.736;2024-01-06T13:13:29;94.07;;;48.83;;
3447;SDS011;1738;49.500;17.736;2024-01-06T13:15:54;101.37;;;45.40;;
3447;SDS011;1738;49.500;17.736;2024-01-06T13:18:20;66.63;;;34.73;;
3447;SDS011;1738;49.500;17.736;2024-01-06T13:20:46;120.73;;;52.20;;
3447;SDS011;1738;49.500;17.736;2024-01-06T13:23:12;180.70;;;81.13;;
3447;SDS011;1738;49.500;17.736;2024-01-06T13:25:38;80.23;;;37.67;;
3447;SDS011;1738;49.500;17.736;2024-01-06T13:28:05;96.07;;;49.37;;
3447;SDS011;1738;49.500;17.736;2024-01-06T13:30:31;64.70;;;42.13;;
3447;SDS011;1738;49.500;17.736;2024-01-06T13:32:57;54.37;;;26.77;;
3447;SDS011;1738;49.500;17.736;2024-01-06T13:35:22;57.37;;;28.20;;
3447;SDS011;1738;49.500;17.736;2024-01-06T13:37:49;78.37;;;39.53;;
3447;SDS011;1738;49.500;17.736;2024-01-06T13:40:15;39.63;;;19.70;;
3447;SDS011;1738;49.500;17.736;2024-01-06T13:42:41;61.07;;;38.10;;
3447;SDS011;1738;49.500;17.736;2024-01-06T13:45:07;87.00;;;43.50;;
3447;SDS011;1738;49.500;17.736;2024-01-06T13:47:33;73.43;;;42.37;;
3447;SDS011;1738;49.500;17.736;2024-01-06T13:49:59;75.27;;;41.97;;
3447;SDS011;1738;49.500;17.736;2024-01-06T13:52:25;64.30;;;36.03;;
3447;SDS011;1738;49.500;17.736;2024-01-06T13:54:51;69.43;;;36.87;;
3447;SDS011;1738;49.500;17.736;2024-01-06T13:57:16;57.70;;;33.50;;
3447;SDS011;1738;49.500;17.736;2024-01-06T13:59:42;67.07;;;35.97;;
3447;SDS011;1738;49.500;17.736;2024-01-06T14:02:08;75.20;;;36.67;;
3447;SDS011;1738;49.500;17.736;2024-01-06T14:04:34;73.60;;;38.57;;
3447;SDS011;1738;49.500;17.736;2024-01-06T14:07:00;44.10;;;21.37;;
3447;SDS011;1738;49.500;17.736;2024-01-06T14:09:26;73.53;;;40.40;;
3447;SDS011;1738;49.500;17.736;2024-01-06T14:11:52;43.27;;;22.17;;
3447;SDS011;1738;49.500;17.736;2024-01-06T14:14:18;70.77;;;34.70;;
3447;SDS011;1738;49.500;17.736;2024-01-06T14:16:44;68.33;;;32.37;;
3447;SDS011;1738;49.500;17.736;2024-01-06T14:19:09;89.47;;;38.97;;
3447;SDS011;1738;49.500;17.736;2024-01-06T14:21:35;81.87;;;39.93;;
3447;SDS011;1738;49.500;17.736;2024-01-06T14:24:01;131.18;;;57.33;;
3447;SDS011;1738;49.500;17.736;2024-01-06T14:26:27;51.00;;;24.23;;
3447;SDS011;1738;49.500;17.736;2024-01-06T14:28:53;74.33;;;34.80;;